Time;durP1;ratioP1;P1;durP2;ratioP2;P2;SDS_P1;SDS_P2;PMS_P1;PMS_P2;Temp;Humidity;BMP_temperature;BMP_pressure;BME280_temperature;BME280_humidity;BME280_pressure;Samples;Min_cycle;Max_cycle;Signal;HPM_P1;HPM_P2
2021/12/09 00:02:20;;;;;;;74.55;39.40;;;;;;;;;;5030157;28;20017;-88
2021/12/09 00:04:45;;;;;;;73.47;37.58;;;;;;;;;;5029995;28;20029;-88
2021/12/09 00:07:11;;;;;;;71.97;39.63;;;;;;;;;;5012404;28;20596;-88
2021/12/09 00:09:36;;;;;;;66.22;35.75;;;;;;;;;;5030190;28;20032;-88
2021/12/09 00:12:01;;;;;;;72.50;37.08;;;;;;;;;;5030031;28;20362;-88
2021/12/09 00:14:28;;;;;;;71.35;37.15;;;;;;;;;;5029912;28;20026;-88
2021/12/09 00:16:57;;;;;;;77.72;39.33;;;;;;;;;;5011907;28;20033;-88
2021/12/09 00:19:22;;;;;;;69.03;37.10;;;;;;;;;;5012000;28;20471;-88
2021/12/09 00:21:47;;;;;;;68.25;36.42;;;;;;;;;;5045846;28;20112;-88
2021/12/09 00:24:12;;;;;;;70.75;36.72;;;;;;;;;;5016001;28;20120;-88
2021/12/09 00:26:43;;;;;;;73.35;37.30;;;;;;;;;;5049053;28;20024;-88
2021/12/09 00:29:09;;;;;;;76.70;38.88;;;;;;;;;;5016187;28;20036;-88
2021/12/09 00:31:34;;;;;;;66.80;35.25;;;;;;;;;;5033795;28;20025;-88
2021/12/09 00:34:01;;;;;;;77.18;39.33;;;;;;;;;;5015639;28;20026;-88
2021/12/09 00:36:36;;;;;;;71.80;36.30;;;;;;;;;;5034025;28;20383;-88
2021/12/09 00:39:04;;;;;;;67.95;37.65;;;;;;;;;;5016020;28;20500;-88
2021/12/09 00:41:29;;;;;;;71.88;36.78;;;;;;;;;;5033673;28;20429;-88
2021/12/09 00:43:54;;;;;;;73.22;37.47;;;;;;;;;;5015593;28;20112;-88
2021/12/09 00:46:20;;;;;;;83.60;38.90;;;;;;;;;;5033634;28;20021;-88
2021/12/09 00:48:45;;;;;;;80.85;40.10;;;;;;;;;;5033445;28;20029;-88
2021/12/09 00:51:11;;;;;;;81.97;40.80;;;;;;;;;;5048791;28;20036;-88
2021/12/09 00:53:36;;;;;;;80.80;41.60;;;;;;;;;;5033435;28;20033;-88
2021/12/09 00:56:02;;;;;;;78.78;40.40;;;;;;;;;;5015387;28;20017;-88
2021/12/09 00:58:28;;;;;;;76.72;41.67;;;;;;;;;;5033294;28;20416;-88
2021/12/09 01:00:53;;;;;;;79.70;41.28;;;;;;;;;;5033176;28;20029;-88
2021/12/09 01:03:18;;;;;;;80.15;40.42;;;;;;;;;;5048156;28;20532;-88
2021/12/09 01:05:44;;;;;;;81.97;41.70;;;;;;;;;;5048219;28;20362;-88
2021/12/09 01:08:10;;;;;;;83.50;43.92;;;;;;;;;;5033111;28;20022;-88
2021/12/09 01:10:35;;;;;;;81.10;42.67;;;;;;;;;;5032879;28;20032;-88
2021/12/09 01:13:01;;;;;;;79.68;42.58;;;;;;;;;;5032823;28;20025;-88
2021/12/09 01:15:26;;;;;;;83.88;42.03;;;;;;;;;;5015095;28;20032;-88
2021/12/09 01:17:52;;;;;;;87.32;45.85;;;;;;;;;;5032656;28;20108;-88
2021/12/09 01:20:18;;;;;;;85.57;44.08;;;;;;;;;;5014579;28;20400;-88
2021/12/09 01:22:45;;;;;;;87.38;45.20;;;;;;;;;;5032681;28;20028;-88
2021/12/09 01:25:12;;;;;;;84.57;41.80;;;;;;;;;;5014840;28;20030;-88
2021/12/09 01:27:40;;;;;;;85.18;43.22;;;;;;;;;;5014766;28;20029;-88
2021/12/09 01:30:10;;;;;;;85.32;42.03;;;;;;;;;;5032535;28;20037;-88
2021/12/09 01:32:36;;;;;;;84.15;41.10;;;;;;;;;;5014663;28;20051;-88
2021/12/09 01:35:02;;;;;;;84.55;43.92;;;;;;;;;;5013909;28;20029;-88
2021/12/09 01:37:27;;;;;;;79.20;40.67;;;;;;;;;;5014520;28;20064;-88
2021/12/09 01:39:52;;;;;;;84.68;43.47;;;;;;;;;;5032472;28;20095;-88
2021/12/09 01:42:18;;;;;;;90.73;43.07;;;;;;;;;;5014732;28;20031;-88
2021/12/09 01:44:43;;;;;;;81.03;41.65;;;;;;;;;;5014438;28;20264;-88
2021/12/09 01:47:09;;;;;;;83.57;42.38;;;;;;;;;;5032448;28;20499;-88
2021/12/09 01:49:34;;;;;;;80.25;41.47;;;;;;;;;;5014504;28;20029;-88
2021/12/09 01:51:59;;;;;;;79.78;40.03;;;;;;;;;;5032260;28;20476;-88
2021/12/09 01:54:24;;;;;;;85.22;42.83;;;;;;;;;;5014337;28;20041;-88
2021/12/09 01:56:50;;;;;;;81.75;40.78;;;;;;;;;;5014326;28;20057;-88
2021/12/09 01:59:16;;;;;;;88.03;43.67;;;;;;;;;;5032007;28;20035;-88
2021/12/09 02:01:41;;;;;;;80.18;41.40;;;;;;;;;;5014371;28;20546;-88
2021/12/09 02:04:07;;;;;;;79.38;41.17;;;;;;;;;;5014064;28;20088;-88
2021/12/09 02:06:33;;;;;;;80.68;40.75;;;;;;;;;;5013810;28;20053;-88
2021/12/09 02:08:59;;;;;;;78.70;40.90;;;;;;;;;;5031741;28;20500;-88
2021/12/09 02:11:24;;;;;;;79.35;40.22;;;;;;;;;;5031679;28;20432;-88
2021/12/09 02:13:52;;;;;;;81.32;41.78;;;;;;;;;;5031869;28;20017;-88
2021/12/09 02:16:17;;;;;;;75.45;39.85;;;;;;;;;;5031690;28;20430;-88
2021/12/09 02:18:42;;;;;;;87.20;40.95;;;;;;;;;;5013586;28;20072;-88
2021/12/09 02:21:15;;;;;;;76.35;39.72;;;;;;;;;;5031413;28;20037;-88
2021/12/09 02:23:42;;;;;;;85.88;43.67;;;;;;;;;;5031509;28;20032;-88
2021/12/09 02:26:07;;;;;;;78.32;42.08;;;;;;;;;;5013699;28;20044;-87
2021/12/09 02:28:33;;;;;;;80.95;41.25;;;;;;;;;;5031215;28;20013;-88
2021/12/09 02:30:58;;;;;;;80.28;42.67;;;;;;;;;;5031474;28;20022;-88
2021/12/09 02:33:24;;;;;;;92.15;45.50;;;;;;;;;;5013762;28;20029;-88
2021/12/09 02:35:49;;;;;;;87.10;43.38;;;;;;;;;;5013442;28;20025;-88
2021/12/09 02:38:14;;;;;;;85.97;44.03;;;;;;;;;;5031239;28;20039;-88
2021/12/09 02:40:40;;;;;;;88.53;43.83;;;;;;;;;;5013472;28;20017;-88
2021/12/09 02:43:08;;;;;;;84.63;42.60;;;;;;;;;;5013347;28;20025;-88
2021/12/09 02:45:33;;;;;;;85.60;42.53;;;;;;;;;;5013147;28;20037;-88
2021/12/09 02:47:59;;;;;;;85.57;42.20;;;;;;;;;;5030977;28;20040;-88
2021/12/09 02:50:24;;;;;;;82.88;43.42;;;;;;;;;;5031034;28;20028;-88
2021/12/09 02:52:49;;;;;;;87.53;43.22;;;;;;;;;;5030772;28;20025;-88
2021/12/09 02:55:14;;;;;;;83.43;42.60;;;;;;;;;;5013079;28;20029;-88
2021/12/09 02:57:40;;;;;;;81.57;41.87;;;;;;;;;;5012872;28;20033;-88
2021/12/09 03:00:06;;;;;;;80.43;41.65;;;;;;;;;;5012886;28;20661;-88
2021/12/09 03:02:31;;;;;;;82.65;43.03;;;;;;;;;;5012938;28;20036;-88
2021/12/09 03:05:02;;;;;;;95.03;44.88;;;;;;;;;;5012809;28;20018;-88
2021/12/09 03:07:31;;;;;;;90.43;43.67;;;;;;;;;;5012687;28;20030;-88
2021/12/09 03:09:59;;;;;;;79.55;42.50;;;;;;;;;;5012678;28;20029;-88
2021/12/09 03:12:32;;;;;;;87.32;44.25;;;;;;;;;;5012689;28;20022;-88
2021/12/09 03:14:58;;;;;;;88.57;44.63;;;;;;;;;;5012607;28;20025;-88
2021/12/09 03:17:23;;;;;;;86.57;43.70;;;;;;;;;;5030564;28;20041;-88
2021/12/09 03:19:49;;;;;;;83.43;42.08;;;;;;;;;;5030389;28;20520;-88
2021/12/09 03:22:15;;;;;;;82.80;42.35;;;;;;;;;;5012539;28;20718;-88
2021/12/09 03:24:40;;;;;;;83.57;42.28;;;;;;;;;;5012532;28;20052;-87
2021/12/09 03:27:06;;;;;;;92.68;46.15;;;;;;;;;;5012394;28;20469;-88
2021/12/09 03:29:31;;;;;;;96.07;44.45;;;;;;;;;;5030470;28;20021;-88
2021/12/09 03:31:59;;;;;;;88.37;43.20;;;;;;;;;;5012652;28;20025;-88
2021/12/09 03:34:25;;;;;;;93.80;46.10;;;;;;;;;;5030055;28;20272;-88
2021/12/09 03:36:51;;;;;;;88.22;45.35;;;;;;;;;;5012260;28;20396;-88
2021/12/09 03:39:18;;;;;;;94.47;44.47;;;;;;;;;;5012172;28;20032;-87
2021/12/09 03:41:49;;;;;;;92.40;45.33;;;;;;;;;;5030126;28;20440;-87
2021/12/09 03:44:14;;;;;;;85.03;42.05;;;;;;;;;;5012279;28;20025;-88
2021/12/09 03:46:39;;;;;;;87.63;44.50;;;;;;;;;;5012768;28;20433;-88
2021/12/09 03:49:05;;;;;;;95.78;45.72;;;;;;;;;;5012615;28;20028;-88
2021/12/09 03:51:30;;;;;;;99.70;45.30;;;;;;;;;;5030175;28;20017;-88
2021/12/09 03:53:55;;;;;;;95.45;48.03;;;;;;;;;;5012267;28;20041;-88
2021/12/09 03:56:21;;;;;;;87.63;44.03;;;;;;;;;;5029727;28;20113;-88
2021/12/09 03:58:47;;;;;;;99.60;45.35;;;;;;;;;;5011709;28;20043;-88
2021/12/09 04:01:12;;;;;;;92.40;45.22;;;;;;;;;;5029987;28;20031;-88
2021/12/09 04:03:37;;;;;;;89.38;43.97;;;;;;;;;;5012017;28;20029;-88
2021/12/09 04:06:02;;;;;;;96.63;45.72;;;;;;;;;;5029950;28;20028;-88
2021/12/09 04:08:28;;;;;;;89.15;45.03;;;;;;;;;;5029917;28;20040;-88
2021/12/09 04:10:53;;;;;;;93.80;44.93;;;;;;;;;;5029900;28;20029;-88
2021/12/09 04:13:18;;;;;;;88.95;43.60;;;;;;;;;;5011961;28;20323;-87
2021/12/09 04:15:44;;;;;;;99.57;45.93;;;;;;;;;;5011894;28;20035;-88
2021/12/09 04:18:09;;;;;;;92.95;45.92;;;;;;;;;;5011723;28;20289;-88
2021/12/09 04:20:35;;;;;;;95.22;45.40;;;;;;;;;;5011601;28;20084;-88
2021/12/09 04:23:00;;;;;;;91.90;45.10;;;;;;;;;;5029652;28;20029;-88
2021/12/09 04:25:26;;;;;;;89.72;43.67;;;;;;;;;;5012042;28;20481;-88
2021/12/09 04:27:53;;;;;;;98.65;46.45;;;;;;;;;;5012126;28;20030;-88
2021/12/09 04:30:19;;;;;;;89.75;46.03;;;;;;;;;;5029765;28;20083;-88
2021/12/09 04:32:45;;;;;;;92.60;44.58;;;;;;;;;;5011875;28;20033;-88
2021/12/09 04:35:11;;;;;;;98.13;47.75;;;;;;;;;;5029821;28;20021;-88
2021/12/09 04:37:38;;;;;;;96.90;45.55;;;;;;;;;;5012116;28;20072;-88
2021/12/09 04:40:04;;;;;;;97.72;46.53;;;;;;;;;;5029559;28;20021;-88
2021/12/09 04:42:29;;;;;;;98.82;46.25;;;;;;;;;;5029694;28;20064;-88
2021/12/09 04:44:55;;;;;;;99.88;45.42;;;;;;;;;;5029579;28;20484;-88
2021/12/09 04:47:20;;;;;;;98.05;46.97;;;;;;;;;;5029600;28;20021;-88
2021/12/09 04:49:45;;;;;;;100.70;46.53;;;;;;;;;;5012028;28;20022;-88
2021/12/09 04:52:11;;;;;;;94.30;46.90;;;;;;;;;;5011674;28;20021;-88
2021/12/09 04:54:36;;;;;;;95.95;47.65;;;;;;;;;;5029531;28;20350;-88
2021/12/09 04:57:05;;;;;;;95.43;46.42;;;;;;;;;;5029542;28;20021;-88
2021/12/09 04:59:30;;;;;;;100.22;48.70;;;;;;;;;;5011698;28;20064;-88
2021/12/09 05:01:55;;;;;;;97.77;46.20;;;;;;;;;;5011632;28;20052;-88
2021/12/09 05:04:21;;;;;;;97.63;46.58;;;;;;;;;;5011738;28;20379;-88
2021/12/09 05:06:46;;;;;;;100.38;47.10;;;;;;;;;;5011691;28;20075;-88
2021/12/09 05:09:16;;;;;;;102.60;46.85;;;;;;;;;;5012628;28;20021;-88
2021/12/09 05:14:07;;;;;;;98.07;48.43;;;;;;;;;;5033259;28;20795;-88
2021/12/09 05:16:32;;;;;;;96.80;46.13;;;;;;;;;;5033007;28;20307;-88
2021/12/09 05:19:01;;;;;;;95.95;46.42;;;;;;;;;;5032389;28;20037;-88
2021/12/09 05:21:29;;;;;;;92.28;44.47;;;;;;;;;;5014965;28;20094;-88
2021/12/09 05:23:54;;;;;;;99.00;45.58;;;;;;;;;;5014721;28;20112;-88
2021/12/09 05:26:22;;;;;;;100.95;46.50;;;;;;;;;;5032862;28;20164;-88
2021/12/09 05:28:54;;;;;;;96.43;47.75;;;;;;;;;;5032595;28;20385;-88
2021/12/09 05:34:03;;;;;;;94.03;45.97;;;;;;;;;;5033054;28;20060;-87
2021/12/09 05:36:28;;;;;;;99.68;46.35;;;;;;;;;;5032775;28;20048;-88
2021/12/09 05:38:53;;;;;;;106.72;48.90;;;;;;;;;;5014232;28;20048;-88
2021/12/09 05:41:19;;;;;;;97.97;45.77;;;;;;;;;;5032348;28;20033;-88
2021/12/09 05:43:44;;;;;;;99.78;43.90;;;;;;;;;;5032498;28;20248;-87
2021/12/09 05:46:10;;;;;;;93.25;45.20;;;;;;;;;;5014648;28;20139;-87
2021/12/09 05:48:36;;;;;;;94.70;46.20;;;;;;;;;;5014179;28;20018;-88
2021/12/09 05:51:01;;;;;;;92.45;43.90;;;;;;;;;;5032084;28;20045;-88
2021/12/09 05:53:26;;;;;;;94.78;44.08;;;;;;;;;;5032108;28;20021;-87
2021/12/09 05:55:52;;;;;;;107.45;47.30;;;;;;;;;;5013933;28;20476;-88
2021/12/09 05:58:18;;;;;;;98.43;48.50;;;;;;;;;;5032042;28;20045;-88
2021/12/09 06:00:43;;;;;;;100.93;47.20;;;;;;;;;;5032097;28;20025;-87
2021/12/09 06:03:09;;;;;;;100.72;48.85;;;;;;;;;;5031908;28;20032;-87
2021/12/09 06:05:34;;;;;;;97.13;45.05;;;;;;;;;;5013651;28;20021;-88
2021/12/09 06:07:59;;;;;;;101.95;48.63;;;;;;;;;;5013566;28;20029;-88
2021/12/09 06:10:25;;;;;;;101.07;48.95;;;;;;;;;;5013820;28;20495;-88
2021/12/09 06:12:50;;;;;;;104.40;50.90;;;;;;;;;;5013793;28;20083;-88
2021/12/09 06:15:15;;;;;;;104.38;46.67;;;;;;;;;;5031472;28;20045;-88
2021/12/09 06:17:40;;;;;;;102.55;47.28;;;;;;;;;;5013428;28;20385;-88
2021/12/09 06:20:06;;;;;;;110.82;49.70;;;;;;;;;;5031072;28;20075;-88
2021/12/09 06:22:31;;;;;;;105.43;49.78;;;;;;;;;;5013687;28;20314;-88
2021/12/09 06:24:56;;;;;;;111.18;50.72;;;;;;;;;;5031260;28;20113;-88
2021/12/09 06:27:21;;;;;;;111.63;49.70;;;;;;;;;;5031361;28;20091;-88
2021/12/09 06:29:46;;;;;;;122.53;52.10;;;;;;;;;;5031092;28;20697;-88
2021/12/09 06:32:12;;;;;;;107.50;49.15;;;;;;;;;;5027479;28;20268;-87
2021/12/09 06:34:37;;;;;;;123.20;52.00;;;;;;;;;;5027472;28;20028;-89
2021/12/09 06:37:02;;;;;;;117.93;50.72;;;;;;;;;;5030826;28;20052;-89
2021/12/09 06:39:27;;;;;;;105.20;47.30;;;;;;;;;;5031325;28;20113;-89
2021/12/09 06:41:52;;;;;;;107.30;50.03;;;;;;;;;;5031261;28;20031;-89
2021/12/09 06:44:18;;;;;;;111.38;52.35;;;;;;;;;;5013449;28;20032;-90
2021/12/09 06:46:43;;;;;;;133.10;52.90;;;;;;;;;;5013373;28;20029;-90
2021/12/09 06:49:08;;;;;;;118.68;53.70;;;;;;;;;;5013697;28;20377;-89
2021/12/09 06:51:33;;;;;;;113.20;51.28;;;;;;;;;;5013558;28;20083;-89
2021/12/09 06:53:59;;;;;;;117.70;53.35;;;;;;;;;;5031628;28;20428;-90
2021/12/09 06:56:27;;;;;;;115.10;53.33;;;;;;;;;;5013583;28;20017;-90
2021/12/09 06:58:52;;;;;;;118.35;52.20;;;;;;;;;;5030653;28;20444;-90
2021/12/09 07:01:17;;;;;;;119.72;52.05;;;;;;;;;;5013500;28;20025;-90
2021/12/09 07:03:42;;;;;;;121.35;53.20;;;;;;;;;;5013311;28;20071;-90
2021/12/09 07:06:11;;;;;;;116.50;51.60;;;;;;;;;;5012326;28;20017;-87
2021/12/09 07:08:42;;;;;;;117.90;51.10;;;;;;;;;;5010873;28;20018;-87
2021/12/09 07:11:08;;;;;;;118.78;50.97;;;;;;;;;;5011181;28;20494;-87
2021/12/09 07:13:33;;;;;;;118.05;51.05;;;;;;;;;;5028868;28;20033;-87
2021/12/09 07:15:59;;;;;;;117.78;52.78;;;;;;;;;;5011245;28;20025;-87
2021/12/09 07:18:25;;;;;;;116.53;52.75;;;;;;;;;;5010510;28;20474;-87
2021/12/09 07:20:51;;;;;;;114.65;51.03;;;;;;;;;;5028854;28;20061;-87
2021/12/09 07:23:16;;;;;;;116.60;53.45;;;;;;;;;;5028521;28;20021;-87
2021/12/09 07:25:41;;;;;;;115.15;52.30;;;;;;;;;;5033522;28;20016;-86
2021/12/09 07:28:06;;;;;;;118.80;52.33;;;;;;;;;;5048073;28;20149;-88
2021/12/09 07:30:31;;;;;;;117.63;52.30;;;;;;;;;;5040295;28;20028;-87
2021/12/09 07:32:57;;;;;;;119.73;54.23;;;;;;;;;;5010032;28;20351;-87
2021/12/09 07:35:24;;;;;;;115.90;53.40;;;;;;;;;;5010672;28;20276;-87
2021/12/09 07:37:50;;;;;;;117.18;53.42;;;;;;;;;;5010042;28;20033;-87
2021/12/09 07:40:16;;;;;;;109.65;53.80;;;;;;;;;;5028371;28;20075;-87
2021/12/09 07:42:41;;;;;;;109.35;51.08;;;;;;;;;;5028522;28;20096;-87
2021/12/09 07:45:08;;;;;;;113.13;51.35;;;;;;;;;;5028181;28;20164;-87
2021/12/09 07:47:33;;;;;;;113.38;52.95;;;;;;;;;;5010722;28;20021;-87
2021/12/09 07:49:58;;;;;;;117.60;52.70;;;;;;;;;;5028182;28;20025;-87
2021/12/09 07:52:24;;;;;;;114.22;53.83;;;;;;;;;;5028399;28;20018;-87
2021/12/09 07:54:49;;;;;;;112.10;52.88;;;;;;;;;;5010050;28;20468;-87
2021/12/09 07:57:14;;;;;;;110.80;53.47;;;;;;;;;;5028370;28;20025;-87
2021/12/09 07:59:40;;;;;;;117.45;52.85;;;;;;;;;;5010021;28;20385;-87
2021/12/09 08:02:05;;;;;;;105.40;49.78;;;;;;;;;;5010110;28;20033;-87
2021/12/09 08:04:32;;;;;;;112.15;53.38;;;;;;;;;;5010050;28;20690;-87
2021/12/09 08:06:58;;;;;;;111.30;51.95;;;;;;;;;;5009975;28;20152;-87
2021/12/09 08:09:23;;;;;;;108.93;50.78;;;;;;;;;;5010570;28;20112;-88
2021/12/09 08:11:48;;;;;;;107.30;50.28;;;;;;;;;;5010111;28;20021;-88
2021/12/09 08:14:16;;;;;;;109.73;51.80;;;;;;;;;;5010796;28;20030;-88
2021/12/09 08:16:41;;;;;;;110.03;52.50;;;;;;;;;;5028842;28;20275;-88
2021/12/09 08:19:08;;;;;;;106.70;52.17;;;;;;;;;;5010287;28;20049;-88
2021/12/09 08:21:35;;;;;;;103.43;50.22;;;;;;;;;;5010332;28;20029;-88
2021/12/09 08:24:01;;;;;;;107.93;53.10;;;;;;;;;;5012321;28;20453;-88
2021/12/09 08:26:26;;;;;;;109.63;51.92;;;;;;;;;;5028362;28;20022;-87
2021/12/09 08:28:51;;;;;;;110.32;49.67;;;;;;;;;;5028049;28;20044;-87
2021/12/09 08:31:17;;;;;;;108.43;49.97;;;;;;;;;;5009982;28;20076;-87
2021/12/09 08:33:42;;;;;;;108.15;48.45;;;;;;;;;;5010048;28;20084;-87
2021/12/09 08:36:07;;;;;;;115.00;52.97;;;;;;;;;;5027674;28;20476;-87
2021/12/09 08:38:34;;;;;;;105.45;49.80;;;;;;;;;;5027093;28;20196;-87
2021/12/09 08:41:01;;;;;;;106.32;51.75;;;;;;;;;;5027564;28;20412;-88
2021/12/09 08:43:27;;;;;;;98.90;48.78;;;;;;;;;;5011477;28;20452;-87
2021/12/09 08:45:53;;;;;;;106.82;50.53;;;;;;;;;;5013409;28;20056;-87
2021/12/09 08:48:19;;;;;;;113.68;52.38;;;;;;;;;;5031643;28;20112;-88
2021/12/09 08:50:44;;;;;;;110.25;51.88;;;;;;;;;;5013810;28;20133;-87
2021/12/09 08:53:12;;;;;;;113.45;50.67;;;;;;;;;;5013608;28;20392;-88
2021/12/09 08:55:38;;;;;;;101.47;50.45;;;;;;;;;;5031498;28;20029;-87
2021/12/09 08:58:04;;;;;;;112.80;54.15;;;;;;;;;;5032067;28;20293;-87
2021/12/09 09:00:31;;;;;;;117.50;52.47;;;;;;;;;;5013837;28;20782;-87
2021/12/09 09:02:57;;;;;;;111.70;52.60;;;;;;;;;;5013165;28;20032;-87
2021/12/09 09:05:22;;;;;;;115.20;53.58;;;;;;;;;;5031521;28;20029;-87
2021/12/09 09:07:48;;;;;;;111.95;52.95;;;;;;;;;;5030753;28;20393;-88
2021/12/09 09:10:17;;;;;;;112.18;52.17;;;;;;;;;;5013379;28;20029;-88
2021/12/09 09:12:42;;;;;;;112.93;53.28;;;;;;;;;;5031510;28;20095;-88
2021/12/09 09:15:09;;;;;;;113.93;52.47;;;;;;;;;;5013406;28;20030;-87
2021/12/09 09:17:35;;;;;;;125.47;54.78;;;;;;;;;;5013183;28;20035;-87
2021/12/09 09:20:00;;;;;;;120.10;59.15;;;;;;;;;;5012852;28;20049;-88
2021/12/09 09:22:25;;;;;;;113.43;53.47;;;;;;;;;;5012703;28;20456;-89
2021/12/09 09:24:51;;;;;;;111.90;51.75;;;;;;;;;;5014074;28;20022;-88
2021/12/09 09:27:16;;;;;;;113.28;51.03;;;;;;;;;;5049963;28;20029;-89
2021/12/09 09:29:42;;;;;;;109.67;52.00;;;;;;;;;;5033575;28;20017;-89
2021/12/09 09:32:10;;;;;;;105.30;50.20;;;;;;;;;;5030774;28;20268;-89
2021/12/09 09:34:36;;;;;;;115.55;53.38;;;;;;;;;;5014025;28;20049;-87
2021/12/09 09:37:01;;;;;;;111.28;53.15;;;;;;;;;;5012221;28;20476;-87
2021/12/09 09:39:29;;;;;;;101.68;49.75;;;;;;;;;;5029295;28;20045;-87
2021/12/09 09:42:06;;;;;;;109.72;50.50;;;;;;;;;;5030214;28;20029;-87
2021/12/09 09:44:45;;;;;;;116.28;52.30;;;;;;;;;;5011099;28;20076;-87
2021/12/09 09:47:10;;;;;;;111.07;50.17;;;;;;;;;;5012845;28;20099;-86
2021/12/09 09:49:36;;;;;;;115.57;51.65;;;;;;;;;;5012330;28;20780;-87
2021/12/09 09:52:01;;;;;;;107.78;51.35;;;;;;;;;;5012349;28;20116;-87
2021/12/09 09:54:26;;;;;;;108.20;51.30;;;;;;;;;;5011573;28;20076;-87
2021/12/09 09:56:52;;;;;;;118.97;53.78;;;;;;;;;;5012026;28;20021;-87
2021/12/09 09:59:18;;;;;;;109.22;47.78;;;;;;;;;;5012886;28;20050;-87
2021/12/09 10:01:44;;;;;;;111.75;54.03;;;;;;;;;;5030318;28;20695;-87
2021/12/09 10:04:11;;;;;;;111.05;51.65;;;;;;;;;;5030544;28;20040;-87
2021/12/09 10:06:37;;;;;;;108.60;52.28;;;;;;;;;;5030443;28;20041;-88
2021/12/09 10:09:03;;;;;;;112.82;51.38;;;;;;;;;;5030444;28;20029;-88
2021/12/09 10:11:29;;;;;;;109.70;53.22;;;;;;;;;;5030060;28;20485;-87
2021/12/09 10:14:07;;;;;;;105.65;51.28;;;;;;;;;;5029973;28;20049;-87
2021/12/09 10:16:34;;;;;;;109.85;51.25;;;;;;;;;;5012007;28;20394;-86
2021/12/09 10:18:59;;;;;;;103.72;51.97;;;;;;;;;;5031760;28;20528;-89
2021/12/09 10:21:26;;;;;;;109.00;51.63;;;;;;;;;;5032021;28;20025;-89
2021/12/09 10:23:57;;;;;;;111.25;51.60;;;;;;;;;;5031683;28;20268;-89
2021/12/09 10:26:24;;;;;;;111.05;51.58;;;;;;;;;;5031730;28;20022;-89
2021/12/09 10:28:51;;;;;;;107.53;52.55;;;;;;;;;;5013417;28;20516;-88
2021/12/09 10:31:20;;;;;;;104.20;52.30;;;;;;;;;;5031301;28;20030;-89
2021/12/09 10:34:01;;;;;;;110.18;53.10;;;;;;;;;;5031289;28;20053;-88
2021/12/09 10:36:27;;;;;;;;;;;;;;;;;;5031832;28;20009;-89
2021/12/09 10:39:12;;;;;;;116.15;53.50;;;;;;;;;;5029950;28;19917;-87
2021/12/09 10:41:37;;;;;;;107.38;52.90;;;;;;;;;;5028913;28;20040;-87
2021/12/09 10:44:02;;;;;;;107.53;51.53;;;;;;;;;;5030040;28;20017;-87
2021/12/09 10:46:52;;;;;;;101.80;47.88;;;;;;;;;;5011584;28;20017;-87
2021/12/09 10:49:18;;;;;;;113.65;50.45;;;;;;;;;;5011797;28;20028;-87
2021/12/09 10:51:55;;;;;;;103.07;50.22;;;;;;;;;;5011203;28;20036;-87
2021/12/09 10:54:34;;;;;;;108.88;50.75;;;;;;;;;;5029457;28;20033;-87
2021/12/09 10:57:18;;;;;;;97.32;48.83;;;;;;;;;;5029308;28;20021;-87
2021/12/09 10:59:43;;;;;;;107.93;49.97;;;;;;;;;;5010299;28;20037;-87
2021/12/09 11:02:09;;;;;;;113.75;53.38;;;;;;;;;;5029172;28;20036;-87
2021/12/09 11:04:34;;;;;;;107.55;51.75;;;;;;;;;;5011109;28;20453;-87
2021/12/09 11:07:17;;;;;;;103.88;50.10;;;;;;;;;;5010248;28;20116;-87
2021/12/09 11:09:42;;;;;;;104.93;49.63;;;;;;;;;;5028864;28;20132;-87
2021/12/09 11:12:24;;;;;;;100.78;49.83;;;;;;;;;;5010701;28;20190;-87
2021/12/09 11:15:00;;;;;;;104.40;49.90;;;;;;;;;;5028269;28;20028;-87
2021/12/09 11:17:33;;;;;;;84.43;44.78;;;;;;;;;;5028309;28;20049;-87
2021/12/09 11:19:58;;;;;;;95.45;46.00;;;;;;;;;;5028363;28;20054;-87
2021/12/09 11:22:29;;;;;;;88.47;45.97;;;;;;;;;;5028426;28;20013;-87
2021/12/09 11:24:59;;;;;;;92.43;46.55;;;;;;;;;;5027968;28;20033;-87
2021/12/09 11:27:26;;;;;;;91.97;47.00;;;;;;;;;;5029153;28;20025;-86
2021/12/09 11:29:55;;;;;;;89.65;45.67;;;;;;;;;;5030225;28;20051;-86
2021/12/09 11:32:28;;;;;;;95.32;46.83;;;;;;;;;;5040935;28;20496;-87
2021/12/09 11:35:09;;;;;;;91.55;45.97;;;;;;;;;;5013277;28;20021;-86
2021/12/09 11:37:43;;;;;;;92.75;46.80;;;;;;;;;;5013960;28;20033;-87
2021/12/09 11:40:08;;;;;;;91.60;45.40;;;;;;;;;;5013025;28;20486;-87
2021/12/09 11:42:43;;;;;;;83.13;43.97;;;;;;;;;;5029264;28;20033;-87
2021/12/09 11:45:09;;;;;;;87.32;47.08;;;;;;;;;;5011051;28;20034;-87
2021/12/09 11:47:37;;;;;;;94.93;46.40;;;;;;;;;;5010696;28;20773;-87
2021/12/09 11:50:03;;;;;;;86.18;43.85;;;;;;;;;;5009031;28;20140;-87
2021/12/09 11:52:29;;;;;;;96.28;47.65;;;;;;;;;;5029118;28;20876;-87
2021/12/09 11:55:00;;;;;;;88.00;45.42;;;;;;;;;;5010737;28;20105;-87
2021/12/09 11:57:34;;;;;;;89.88;45.65;;;;;;;;;;5010031;28;20048;-87
2021/12/09 12:06:47;;;;;;;90.78;47.80;;;;;;;;;;5008252;28;20091;-87
2021/12/09 12:11:58;;;;;;;88.00;47.28;;;;;;;;;;5011011;28;20786;-89
2021/12/09 12:14:28;;;;;;;88.28;47.05;;;;;;;;;;5010840;28;20488;-89
2021/12/09 12:17:14;;;;;;;89.22;45.72;;;;;;;;;;4994160;28;20034;-89
2021/12/09 12:19:55;;;;;;;87.53;45.97;;;;;;;;;;5013950;28;20057;-90
2021/12/09 12:22:46;;;;;;;79.20;44.53;;;;;;;;;;5034334;28;20535;-89
2021/12/09 12:25:34;;;;;;;81.45;43.90;;;;;;;;;;5035273;28;20029;-89
2021/12/09 12:28:26;;;;;;;85.55;46.03;;;;;;;;;;5016132;28;20017;-89
2021/12/09 12:33:36;;;;;;;87.15;45.63;;;;;;;;;;5034103;28;20021;-89
2021/12/09 12:36:38;;;;;;;81.40;43.15;;;;;;;;;;5033788;28;20060;-89
2021/12/09 12:39:17;;;;;;;77.07;43.38;;;;;;;;;;5014938;28;20057;-89
2021/12/09 12:41:59;;;;;;;84.63;45.15;;;;;;;;;;5030872;28;20106;-89
2021/12/09 12:44:25;;;;;;;77.55;40.50;;;;;;;;;;5012592;28;20474;-89
2021/12/09 12:47:08;;;;;;;81.78;45.15;;;;;;;;;;5015137;28;20037;-89
2021/12/09 12:49:36;;;;;;;83.47;43.83;;;;;;;;;;5013674;28;20041;-89
2021/12/09 12:52:15;;;;;;;80.10;43.30;;;;;;;;;;5032853;28;20017;-89
2021/12/09 12:54:54;;;;;;;74.45;42.38;;;;;;;;;;5033596;28;20079;-89
2021/12/09 12:57:27;;;;;;;83.13;44.17;;;;;;;;;;5016144;28;20028;-90
2021/12/09 13:00:11;;;;;;;85.85;45.55;;;;;;;;;;5033480;28;20760;-89
2021/12/09 13:02:55;;;;;;;88.15;44.45;;;;;;;;;;5033232;28;20053;-89
2021/12/09 13:06:37;;;;;;;82.95;43.67;;;;;;;;;;5015870;28;20025;-89
2021/12/09 13:08:47;;;;;;;81.22;42.83;;;;;;;;;;5019714;28;20132;-90
2021/12/09 13:11:20;;;;;;;85.82;44.05;;;;;;;;;;5015619;28;20029;-89
2021/12/09 13:16:34;;;;;;;78.38;42.60;;;;;;;;;;5031498;28;20028;-88
2021/12/09 13:19:28;;;;;;;81.80;43.60;;;;;;;;;;5030484;28;21826;-88
2021/12/09 13:22:02;;;;;;;85.47;44.22;;;;;;;;;;5012446;28;20042;-87
2021/12/09 13:25:02;;;;;;;83.35;44.72;;;;;;;;;;5028959;28;20017;-87
2021/12/09 13:27:41;;;;;;;88.07;45.25;;;;;;;;;;5013389;28;20045;-87
2021/12/09 13:30:33;;;;;;;80.22;43.22;;;;;;;;;;4992729;28;20022;-87
2021/12/09 13:35:52;;;;;;;77.53;42.65;;;;;;;;;;5030261;28;20146;-87
2021/12/09 13:38:40;;;;;;;78.57;42.75;;;;;;;;;;5030159;28;20037;-87
2021/12/09 13:49:36;;;;;;;85.75;44.67;;;;;;;;;;5029897;28;20076;-87
2021/12/09 13:54:07;;;;;;;92.38;45.80;;;;;;;;;;5029720;28;20461;-87
2021/12/09 13:54:54;;;;;;;87.38;45.40;;;;;;;;;;5029595;28;20503;-87
2021/12/09 13:57:29;;;;;;;81.95;44.92;;;;;;;;;;5033357;28;20026;-87
2021/12/09 13:59:54;;;;;;;87.78;44.47;;;;;;;;;;5011434;28;20028;-87
2021/12/09 14:02:21;;;;;;;88.60;44.67;;;;;;;;;;5029547;28;20013;-87
2021/12/09 14:04:47;;;;;;;79.50;41.95;;;;;;;;;;5011551;28;20036;-87
2021/12/09 14:07:20;;;;;;;89.53;43.55;;;;;;;;;;5029465;28;20017;-88
2021/12/09 14:09:56;;;;;;;87.20;45.25;;;;;;;;;;5011984;28;20125;-87
2021/12/09 14:12:22;;;;;;;83.28;43.47;;;;;;;;;;5029964;28;20099;-88
2021/12/09 14:15:02;;;;;;;87.40;45.65;;;;;;;;;;5029301;28;20096;-88
2021/12/09 14:17:28;;;;;;;84.40;44.42;;;;;;;;;;5011614;28;20037;-87
2021/12/09 14:20:03;;;;;;;88.32;45.38;;;;;;;;;;5010787;28;20068;-87
2021/12/09 14:22:34;;;;;;;77.03;40.60;;;;;;;;;;5011356;28;20025;-87
2021/12/09 14:25:03;;;;;;;90.57;45.50;;;;;;;;;;5010926;28;20021;-87
2021/12/09 14:27:28;;;;;;;87.13;45.70;;;;;;;;;;5028916;28;20033;-88
2021/12/09 14:29:54;;;;;;;87.18;43.53;;;;;;;;;;5010829;28;20897;-88
2021/12/09 14:32:21;;;;;;;81.55;42.20;;;;;;;;;;5011095;28;20029;-88
2021/12/09 14:34:52;;;;;;;83.90;44.80;;;;;;;;;;5011244;28;20029;-88
2021/12/09 14:37:18;;;;;;;78.85;42.92;;;;;;;;;;5030005;28;20017;-86
2021/12/09 14:39:44;;;;;;;94.43;45.15;;;;;;;;;;5011440;28;20413;-86
2021/12/09 14:42:16;;;;;;;88.07;45.15;;;;;;;;;;5028501;28;20022;-88
2021/12/09 14:44:54;;;;;;;89.32;43.20;;;;;;;;;;5028547;28;20065;-87
2021/12/09 14:47:19;;;;;;;75.15;42.08;;;;;;;;;;5011388;28;20445;-87
2021/12/09 14:49:46;;;;;;;90.70;46.00;;;;;;;;;;5011138;28;20043;-87
2021/12/09 14:52:11;;;;;;;90.97;43.80;;;;;;;;;;5013145;28;20025;-87